Time;durP1;ratioP1;P1;durP2;ratioP2;P2;SDS_P1;SDS_P2;PMS_P1;PMS_P2;Temp;Humidity;BMP_temperature;BMP_pressure;BME280_temperature;BME280_humidity;BME280_pressure;Samples;Min_cycle;Max_cycle;Signal;HPM_P1;HPM_P2
2021/01/30 00:01:55;;;;;;;;;;;;;;;4.54;56.55;99322.88;5046694;28;96771;-80
2021/01/30 00:04:33;;;;;;;;;;;;;;;4.50;55.92;99319.53;5045210;27;96759;-79
2021/01/30 00:06:59;;;;;;;;;;;;;;;4.42;56.19;99318.91;5040325;28;97796;-80
2021/01/30 00:09:26;;;;;;;;;;;;;;;4.53;56.12;99318.56;5039896;28;97374;-80
2021/01/30 00:11:53;;;;;;;;;;;;;;;5.03;54.63;99308.97;5036996;28;96668;-81
2021/01/30 00:14:20;;;;;;;;;;;;;;;4.43;56.43;99322.38;5036252;28;96864;-80
2021/01/30 00:16:46;;;;;;;;;;;;;;;3.84;57.45;99319.91;5036678;28;101581;-80
2021/01/30 00:19:12;;;;;;;;;;;;;;;4.30;56.55;99342.84;5036936;28;98188;-81
2021/01/30 00:21:38;;;;;;;;;;;;;;;3.48;57.71;99335.78;5037570;28;96772;-81
2021/01/30 00:24:05;;;;;;;;;;;;;;;3.48;58.60;99341.00;5036756;28;96735;-80
2021/01/30 00:26:31;;;;;;;;;;;;;;;3.66;58.72;99338.78;5034717;28;100633;-80
2021/01/30 00:28:56;;;;;;;;;;;;;;;3.59;59.39;99338.09;5035822;28;97448;-80
2021/01/30 00:31:23;;;;;;;;;;;;;;;3.69;59.44;99339.53;5035621;28;96698;-79
2021/01/30 00:33:49;;;;;;;;;;;;;;;3.92;58.41;99346.69;5035882;28;96781;-80
2021/01/30 00:36:15;;;;;;;;;;;;;;;3.31;59.11;99348.47;5034499;28;98864;-79
2021/01/30 00:38:41;;;;;;;;;;;;;;;3.69;59.27;99336.06;5034310;27;99698;-80
2021/01/30 00:41:07;;;;;;;;;;;;;;;3.51;60.39;99340.94;5035736;28;96637;-79
2021/01/30 00:43:32;;;;;;;;;;;;;;;3.72;59.93;99339.44;5034578;27;96790;-79
2021/01/30 00:45:58;;;;;;;;;;;;;;;3.95;58.05;99341.34;5034499;28;100648;-79
2021/01/30 00:48:25;;;;;;;;;;;;;;;4.28;57.31;99345.50;5053122;27;97904;-80
2021/01/30 00:50:51;;;;;;;;;;;;;;;4.39;57.37;99339.97;5055406;27;96687;-80
2021/01/30 00:53:17;;;;;;;;;;;;;;;3.53;59.44;99339.13;5057831;27;96871;-79
2021/01/30 00:55:43;;;;;;;;;;;;;;;3.56;58.61;99341.66;5057732;27;101468;-80
2021/01/30 00:58:09;;;;;;;;;;;;;;;4.24;57.24;99350.91;5056257;27;101798;-79
2021/01/30 01:00:34;;;;;;;;;;;;;;;3.46;57.38;99353.28;5057147;27;96955;-80
2021/01/30 01:03:00;;;;;;;;;;;;;;;3.43;59.20;99357.72;5056900;27;96784;-79
2021/01/30 01:05:27;;;;;;;;;;;;;;;3.50;58.77;99352.28;5057621;27;100612;-80
2021/01/30 01:07:53;;;;;;;;;;;;;;;3.89;58.35;99350.22;5057184;27;97817;-79
2021/01/30 01:10:20;;;;;;;;;;;;;;;3.85;58.79;99346.00;5057136;27;96919;-78
2021/01/30 01:12:46;;;;;;;;;;;;;;;4.00;59.20;99355.16;5056354;27;96963;-79
2021/01/30 01:15:13;;;;;;;;;;;;;;;4.03;57.46;99360.25;5055965;27;101388;-80
2021/01/30 01:17:39;;;;;;;;;;;;;;;4.03;58.53;99365.50;5056057;27;98917;-79
2021/01/30 01:20:06;;;;;;;;;;;;;;;3.84;58.33;99359.13;5055626;27;96844;-79
2021/01/30 01:22:33;;;;;;;;;;;;;;;3.71;58.28;99355.16;5059031;27;96973;-79
2021/01/30 01:24:58;;;;;;;;;;;;;;;3.72;58.42;99354.25;5061419;27;98748;-79
2021/01/30 01:27:24;;;;;;;;;;;;;;;3.38;59.07;99355.25;5065737;27;98139;-80
2021/01/30 01:29:50;;;;;;;;;;;;;;;3.47;58.83;99349.78;5064090;27;96656;-80
2021/01/30 01:32:16;;;;;;;;;;;;;;;4.07;58.27;99359.25;5059848;27;96807;-80
2021/01/30 01:34:43;;;;;;;;;;;;;;;3.82;57.86;99351.31;5056486;27;99023;-79
2021/01/30 01:37:08;;;;;;;;;;;;;;;3.58;59.31;99362.50;5057355;27;98931;-79
2021/01/30 01:39:35;;;;;;;;;;;;;;;3.01;60.77;99370.22;5058575;27;96872;-79
2021/01/30 01:42:08;;;;;;;;;;;;;;;3.11;60.86;99367.31;5061429;27;96640;-79
2021/01/30 01:44:34;;;;;;;;;;;;;;;3.13;60.66;99378.56;5059785;27;100957;-80
2021/01/30 01:47:00;;;;;;;;;;;;;;;2.32;62.69;99381.50;5060059;27;97732;-79
2021/01/30 01:49:28;;;;;;;;;;;;;;;2.77;61.63;99376.91;5060048;27;96742;-80
2021/01/30 01:52:03;;;;;;;;;;;;;;;2.69;62.57;99361.44;5059904;27;96685;-79
2021/01/30 01:54:30;;;;;;;;;;;;;;;3.12;61.07;99368.16;5061858;27;99769;-80
2021/01/30 01:57:03;;;;;;;;;;;;;;;3.48;59.86;99367.13;5058378;27;100356;-79
2021/01/30 01:59:29;;;;;;;;;;;;;;;3.43;59.14;99371.63;5061895;27;96709;-80
2021/01/30 02:01:55;;;;;;;;;;;;;;;2.99;60.92;99378.06;5063417;27;97030;-80
2021/01/30 02:04:23;;;;;;;;;;;;;;;3.37;59.81;99386.59;5073163;27;96927;-80
2021/01/30 02:06:50;;;;;;;;;;;;;;;2.38;62.52;99394.41;5062622;27;98941;-79
2021/01/30 02:09:18;;;;;;;;;;;;;;;2.53;62.97;99370.56;5065392;27;96715;-79
2021/01/30 02:11:49;;;;;;;;;;;;;;;3.31;60.96;99361.53;5061608;27;96647;-79
2021/01/30 02:14:16;;;;;;;;;;;;;;;2.96;65.41;99375.53;5056412;27;101125;-80
2021/01/30 02:16:45;;;;;;;;;;;;;;;3.04;60.44;99373.59;5056759;27;101249;-80
2021/01/30 02:19:28;;;;;;;;;;;;;;;3.34;60.07;99374.50;5055810;27;96770;-79
2021/01/30 02:22:09;;;;;;;;;;;;;;;3.24;59.11;99378.25;5056360;27;96841;-79
2021/01/30 02:24:54;;;;;;;;;;;;;;;3.07;60.76;99386.56;5056600;27;100619;-80
2021/01/30 02:27:35;;;;;;;;;;;;;;;2.89;60.17;99397.47;5055967;27;98333;-79
2021/01/30 02:30:11;;;;;;;;;;;;;;;3.45;58.80;99392.47;5054230;27;96700;-79
2021/01/30 02:32:55;;;;;;;;;;;;;;;3.81;57.83;99385.31;5053601;27;96756;-81
2021/01/30 02:35:40;;;;;;;;;;;;;;;3.54;57.94;99393.06;5032778;28;97837;-79
2021/01/30 02:38:09;;;;;;;;;;;;;;;3.29;59.53;99389.44;5031817;28;98251;-80
2021/01/30 02:40:38;;;;;;;;;;;;;;;3.66;58.64;99383.19;5031755;28;96802;-79
2021/01/30 02:43:05;;;;;;;;;;;;;;;3.16;59.12;99378.47;5031973;28;96904;-80
2021/01/30 02:45:35;;;;;;;;;;;;;;;3.11;60.11;99387.31;5031318;28;98991;-80
2021/01/30 02:48:02;;;;;;;;;;;;;;;3.07;60.54;99372.66;5031548;28;100130;-80
2021/01/30 02:50:32;;;;;;;;;;;;;;;3.93;58.14;99384.97;5031907;28;96723;-79
2021/01/30 02:53:00;;;;;;;;;;;;;;;3.46;59.15;99395.06;5032260;28;96795;-79
2021/01/30 02:55:27;;;;;;;;;;;;;;;2.70;61.99;99417.06;5031539;28;97800;-79
2021/01/30 02:57:53;;;;;;;;;;;;;;;2.56;62.82;99419.19;5032041;28;99185;-78
2021/01/30 03:00:22;;;;;;;;;;;;;;;2.88;61.79;99414.03;5032227;28;96679;-79
2021/01/30 03:02:48;;;;;;;;;;;;;;;2.72;62.46;99418.78;5032252;28;96763;-80
2021/01/30 03:05:15;;;;;;;;;;;;;;;2.84;62.02;99416.75;5031253;28;99627;-79
2021/01/30 03:07:52;;;;;;;;;;;;;;;2.65;62.65;99425.03;5031606;28;101491;-79
2021/01/30 03:10:21;;;;;;;;;;;;;;;2.43;63.17;99434.25;5032221;28;96765;-80
2021/01/30 03:12:53;;;;;;;;;;;;;;;2.42;63.26;99436.91;5031808;28;96829;-79
2021/01/30 03:15:22;;;;;;;;;;;;;;;2.90;61.42;99429.63;5031419;28;101866;-79
2021/01/30 03:17:49;;;;;;;;;;;;;;;3.13;60.71;99432.53;5031721;28;98171;-80
2021/01/30 03:20:15;;;;;;;;;;;;;;;2.88;61.07;99447.09;5032343;28;96762;-80
2021/01/30 03:22:42;;;;;;;;;;;;;;;2.91;61.25;99460.91;5032630;28;96631;-78
2021/01/30 03:25:08;;;;;;;;;;;;;;;3.02;61.03;99452.81;5031143;27;98140;-79
2021/01/30 03:27:34;;;;;;;;;;;;;;;3.28;60.60;99460.84;5035182;28;99023;-79
2021/01/30 03:30:02;;;;;;;;;;;;;;;3.28;60.48;99467.81;5035308;28;96741;-79
2021/01/30 03:32:29;;;;;;;;;;;;;;;3.28;60.73;99468.69;5045617;27;96851;-79
2021/01/30 03:34:57;;;;;;;;;;;;;;;3.39;58.68;99466.63;5055458;27;101208;-79
2021/01/30 03:37:24;;;;;;;;;;;;;;;3.56;59.16;99468.78;5055628;27;99892;-79
2021/01/30 03:39:50;;;;;;;;;;;;;;;3.13;60.54;99474.28;5055803;27;96741;-79
2021/01/30 03:42:16;;;;;;;;;;;;;;;2.87;61.89;99485.38;5055561;27;96882;-80
2021/01/30 03:44:42;;;;;;;;;;;;;;;3.43;60.25;99483.06;5055394;27;97898;-79
2021/01/30 03:47:09;;;;;;;;;;;;;;;3.71;59.63;99494.47;5054966;27;98187;-80
2021/01/30 03:49:35;;;;;;;;;;;;;;;3.66;58.86;99505.97;5055206;27;96710;-79
2021/01/30 03:52:01;;;;;;;;;;;;;;;3.78;58.61;99508.22;5055406;27;96806;-80
2021/01/30 03:54:26;;;;;;;;;;;;;;;3.65;59.18;99510.31;5054746;27;100738;-79
2021/01/30 03:56:52;;;;;;;;;;;;;;;3.10;60.83;99516.09;5054897;27;99106;-79
2021/01/30 03:59:19;;;;;;;;;;;;;;;3.43;61.47;99520.47;5055509;27;96775;-79
2021/01/30 04:01:45;;;;;;;;;;;;;;;3.60;59.94;99523.53;5056101;27;96826;-80
2021/01/30 04:04:12;;;;;;;;;;;;;;;3.91;57.83;99525.28;5055583;27;99472;-80
2021/01/30 04:06:38;;;;;;;;;;;;;;;3.40;59.55;99540.59;5056153;27;98148;-80
2021/01/30 04:09:05;;;;;;;;;;;;;;;3.09;60.99;99543.97;5056230;27;96766;-80
2021/01/30 04:11:31;;;;;;;;;;;;;;;2.78;61.78;99536.00;5058584;27;96616;-80
2021/01/30 04:13:57;;;;;;;;;;;;;;;3.22;61.18;99549.72;5059121;27;98915;-80
2021/01/30 04:16:24;;;;;;;;;;;;;;;3.11;61.20;99559.59;5059529;27;98194;-80
2021/01/30 04:18:50;;;;;;;;;;;;;;;2.34;64.02;99550.03;5060213;27;96616;-80
2021/01/30 04:21:16;;;;;;;;;;;;;;;3.09;61.97;99554.41;5056222;27;96819;-80
2021/01/30 04:23:42;;;;;;;;;;;;;;;3.22;61.47;99547.97;5055194;27;98881;-79
2021/01/30 04:26:08;;;;;;;;;;;;;;;4.17;58.97;99542.84;5055151;27;98138;-79
2021/01/30 04:28:34;;;;;;;;;;;;;;;4.12;58.53;99543.00;5057529;27;96670;-78
2021/01/30 04:31:00;;;;;;;;;;;;;;;3.63;59.72;99545.22;5059369;27;96744;-79
2021/01/30 04:33:26;;;;;;;;;;;;;;;3.41;60.59;99556.25;5059356;27;98920;-79
2021/01/30 04:35:52;;;;;;;;;;;;;;;2.98;62.26;99558.16;5061559;27;101864;-78
2021/01/30 04:38:18;;;;;;;;;;;;;;;3.18;61.34;99555.94;5062365;27;96617;-78
2021/01/30 04:40:46;;;;;;;;;;;;;;;3.68;60.30;99549.41;5060206;27;96786;-79
2021/01/30 04:43:15;;;;;;;;;;;;;;;3.84;60.44;99558.56;5055570;27;99363;-79
2021/01/30 04:45:45;;;;;;;;;;;;;;;3.99;60.25;99557.31;5055218;27;98212;-79
2021/01/30 04:48:19;;;;;;;;;;;;;;;4.63;57.63;99553.69;5054502;27;96826;-79
2021/01/30 04:50:51;;;;;;;;;;;;;;;4.54;57.87;99560.94;5054884;27;96617;-79
2021/01/30 04:53:19;;;;;;;;;;;;;;;4.59;57.42;99559.06;5054774;27;98239;-79
2021/01/30 04:56:02;;;;;;;;;;;;;;;4.64;56.72;99565.88;5054352;27;98885;-80
2021/01/30 04:58:34;;;;;;;;;;;;;;;4.26;57.49;99569.59;5054532;27;96819;-80
2021/01/30 05:01:09;;;;;;;;;;;;;;;3.50;59.65;99573.41;5055504;27;96710;-80
2021/01/30 05:03:40;;;;;;;;;;;;;;;3.43;60.85;99583.16;5055194;27;97905;-80
2021/01/30 05:06:11;;;;;;;;;;;;;;;4.17;59.62;99582.94;5054374;27;102207;-80
2021/01/30 05:08:40;;;;;;;;;;;;;;;3.36;61.01;99588.56;5055053;27;96822;-80
2021/01/30 05:11:10;;;;;;;;;;;;;;;3.02;62.63;99597.19;5053917;27;96896;-80
2021/01/30 05:13:39;;;;;;;;;;;;;;;3.31;62.24;99599.13;5053957;27;101420;-80
2021/01/30 05:16:08;;;;;;;;;;;;;;;4.33;59.44;99602.50;5054274;27;99124;-80
2021/01/30 05:18:35;;;;;;;;;;;;;;;3.82;60.12;99606.53;5054773;27;96834;-80
2021/01/30 05:21:03;;;;;;;;;;;;;;;3.93;59.75;99600.16;5055520;27;96808;-80
2021/01/30 05:23:30;;;;;;;;;;;;;;;4.00;60.36;99614.75;5054486;27;98970;-81
2021/01/30 05:25:59;;;;;;;;;;;;;;;3.70;60.70;99617.31;5055071;27;97799;-80
2021/01/30 05:28:29;;;;;;;;;;;;;;;4.10;59.92;99617.97;5055555;27;96803;-81
2021/01/30 05:30:58;;;;;;;;;;;;;;;4.65;57.95;99611.22;5055157;27;96628;-80
2021/01/30 05:33:35;;;;;;;;;;;;;;;4.25;59.17;99614.09;5054422;27;100733;-80
2021/01/30 05:36:06;;;;;;;;;;;;;;;3.80;60.60;99622.28;5054252;27;100656;-80
2021/01/30 05:38:52;;;;;;;;;;;;;;;3.40;61.83;99625.03;5054617;27;96894;-80
2021/01/30 05:41:22;;;;;;;;;;;;;;;3.30;62.18;99639.19;5053936;27;97113;-80
2021/01/30 05:43:50;;;;;;;;;;;;;;;3.69;62.26;99644.31;5053768;27;98936;-80
2021/01/30 05:46:22;;;;;;;;;;;;;;;3.49;61.79;99645.69;5053630;27;103408;-80
2021/01/30 05:48:49;;;;;;;;;;;;;;;3.22;62.63;99644.56;5033111;27;97245;-80
2021/01/30 05:51:19;;;;;;;;;;;;;;;3.68;61.98;99650.44;5034780;28;96931;-79
2021/01/30 05:53:45;;;;;;;;;;;;;;;3.72;61.68;99657.31;5034644;28;101672;-79
2021/01/30 05:56:12;;;;;;;;;;;;;;;3.51;61.59;99669.16;5042625;28;102297;-80
2021/01/30 05:58:39;;;;;;;;;;;;;;;3.59;61.92;99677.66;5042719;28;96882;-79
2021/01/30 06:01:20;;;;;;;;;;;;;;;4.10;60.34;99683.34;5034110;28;96752;-79
2021/01/30 06:03:53;;;;;;;;;;;;;;;3.74;61.46;99689.50;5033041;28;101776;-79
2021/01/30 06:06:19;;;;;;;;;;;;;;;3.60;61.60;99690.72;5032729;28;100765;-78
2021/01/30 06:08:54;;;;;;;;;;;;;;;3.16;63.19;99693.47;5033134;28;96756;-78
2021/01/30 06:11:19;;;;;;;;;;;;;;;3.25;63.62;99698.47;5032569;28;96933;-81
2021/01/30 06:13:51;;;;;;;;;;;;;;;3.21;62.67;99702.06;5032009;28;98662;-80
2021/01/30 06:16:34;;;;;;;;;;;;;;;3.87;61.09;99701.38;5032803;28;98894;-78
2021/01/30 06:19:08;;;;;;;;;;;;;;;4.30;59.82;99707.22;5033013;28;96724;-79
2021/01/30 06:21:34;;;;;;;;;;;;;;;4.50;58.80;99711.06;5032702;28;96734;-79
2021/01/30 06:24:03;;;;;;;;;;;;;;;3.72;60.75;99717.41;5031528;28;98145;-79
2021/01/30 06:26:30;;;;;;;;;;;;;;;3.59;61.30;99730.78;5032680;28;98757;-79
2021/01/30 06:28:57;;;;;;;;;;;;;;;3.43;61.56;99736.38;5017140;28;96808;-79
2021/01/30 06:31:26;;;;;;;;;;;;;;;3.84;60.84;99740.63;5012647;28;96867;-79
2021/01/30 06:33:54;;;;;;;;;;;;;;;4.16;60.23;99745.06;5012087;28;100005;-80
2021/01/30 06:36:22;;;;;;;;;;;;;;;4.09;60.49;99752.22;5012688;28;101082;-80
2021/01/30 06:38:52;;;;;;;;;;;;;;;4.14;59.71;99760.78;5012198;28;96624;-79
2021/01/30 06:41:23;;;;;;;;;;;;;;;4.20;59.67;99758.00;5013120;28;96801;-80
2021/01/30 06:43:51;;;;;;;;;;;;;;;3.71;60.38;99774.03;5012719;28;99036;-80
2021/01/30 06:46:19;;;;;;;;;;;;;;;4.31;59.59;99778.69;5012116;28;99689;-79
2021/01/30 06:48:45;;;;;;;;;;;;;;;4.21;58.88;99780.66;5012257;28;96729;-79
2021/01/30 06:51:25;;;;;;;;;;;;;;;3.91;60.49;99790.13;5012340;28;96872;-80
2021/01/30 06:53:51;;;;;;;;;;;;;;;3.75;60.40;99800.94;5011742;28;99345;-80
2021/01/30 06:56:19;;;;;;;;;;;;;;;3.16;62.01;99803.09;5012202;28;100764;-79
2021/01/30 06:58:46;;;;;;;;;;;;;;;3.64;61.39;99810.78;5012085;28;96822;-79
2021/01/30 07:01:13;;;;;;;;;;;;;;;3.53;61.30;99824.97;5012555;28;97084;-80
2021/01/30 07:04:03;;;;;;;;;;;;;;;3.38;61.69;99830.50;5012552;28;101146;-79
2021/01/30 07:06:32;;;;;;;;;;;;;;;3.13;61.86;99837.97;5001941;28;99024;-80
2021/01/30 07:09:02;;;;;;;;;;;;;;;3.00;62.36;99838.25;5012540;28;96769;-80
2021/01/30 07:11:35;;;;;;;;;;;;;;;3.27;62.34;99842.06;5012441;28;96886;-79
2021/01/30 07:14:02;;;;;;;;;;;;;;;3.42;60.81;99845.19;5012189;28;99218;-80
2021/01/30 07:16:33;;;;;;;;;;;;;;;3.41;60.74;99850.47;5012386;28;98864;-80
2021/01/30 07:19:04;;;;;;;;;;;;;;;3.97;59.19;99850.09;5012597;28;96787;-79
2021/01/30 07:21:34;;;;;;;;;;;;;;;4.36;58.34;99850.91;5011871;28;96824;-80
2021/01/30 07:24:07;;;;;;;;;;;;;;;4.57;57.89;99861.72;5012023;28;97973;-80
2021/01/30 07:26:36;;;;;;;;;;;;;;;4.91;56.41;99859.13;5019157;28;102186;-82
2021/01/30 07:29:04;;;;;;;;;;;;;;;4.05;58.67;99872.59;5031821;28;96831;-80
2021/01/30 07:31:32;;;;;;;;;;;;;;;3.64;60.36;99874.34;5031535;28;96844;-81
2021/01/30 07:34:09;;;;;;;;;;;;;;;4.57;58.18;99880.03;5033179;28;101395;-80
2021/01/30 07:36:38;;;;;;;;;;;;;;;4.59;57.99;99878.25;5033067;28;97644;-81
2021/01/30 07:39:09;;;;;;;;;;;;;;;5.37;55.10;99880.53;5031849;28;96894;-80
2021/01/30 07:41:41;;;;;;;;;;;;;;;5.66;54.25;99881.44;5033201;28;96768;-80
2021/01/30 07:44:11;;;;;;;;;;;;;;;5.69;54.28;99874.38;5034478;28;99244;-80
2021/01/30 07:46:40;;;;;;;;;;;;;;;5.65;54.75;99875.34;5045043;27;101168;-81
2021/01/30 07:49:09;;;;;;;;;;;;;;;5.32;55.18;99881.53;5055674;27;96853;-80
2021/01/30 07:51:38;;;;;;;;;;;;;;;5.98;53.86;99878.75;5053422;27;96700;-80
2021/01/30 07:54:08;;;;;;;;;;;;;;;5.97;53.68;99877.88;5052997;27;101261;-80
2021/01/30 07:56:40;;;;;;;;;;;;;;;5.58;54.15;99868.56;5057415;27;97944;-80
2021/01/30 07:59:17;;;;;;;;;;;;;;;6.15;52.60;99875.63;5071383;27;96755;-81
2021/01/30 08:01:52;;;;;;;;;;;;;;;6.33;52.31;99877.66;5070356;27;96647;-81
2021/01/30 08:04:36;;;;;;;;;;;;;;;5.93;52.87;99876.28;5066864;27;101380;-81
2021/01/30 08:07:16;;;;;;;;;;;;;;;5.81;53.71;99876.63;5054105;27;99730;-80
2021/01/30 08:09:51;;;;;;;;;;;;;;;6.05;53.48;99877.66;5074636;27;95846;-80
2021/01/30 08:12:21;;;;;;;;;;;;;;;6.12;53.24;99875.72;5074667;27;96236;-79
2021/01/30 08:14:53;;;;;;;;;;;;;;;6.35;51.92;99878.47;5077253;27;100446;-80
2021/01/30 08:17:33;;;;;;;;;;;;;;;6.18;52.44;99884.25;5072043;27;96676;-81
2021/01/30 08:20:02;;;;;;;;;;;;;;;6.17;52.49;99884.31;5069152;27;96684;-80
2021/01/30 08:22:32;;;;;;;;;;;;;;;6.44;51.86;99887.81;5074362;27;96776;-80
2021/01/30 08:25:01;;;;;;;;;;;;;;;5.99;53.04;99886.56;5075785;27;102271;-80
2021/01/30 08:27:30;;;;;;;;;;;;;;;5.95;53.79;99895.47;5066228;27;101048;-80
2021/01/30 08:30:01;;;;;;;;;;;;;;;6.07;53.00;99891.59;5062235;27;96775;-81
2021/01/30 08:32:31;;;;;;;;;;;;;;;6.13;52.70;99885.28;5062822;27;96730;-80
2021/01/30 08:34:57;;;;;;;;;;;;;;;6.22;52.72;99893.75;5063657;27;98464;-79
2021/01/30 08:37:37;;;;;;;;;;;;;;;6.31;52.42;99901.31;5065999;27;102394;-80
2021/01/30 08:40:05;;;;;;;;;;;;;;;6.09;53.03;99904.66;5070884;27;96663;-80
2021/01/30 08:42:33;;;;;;;;;;;;;;;5.77;53.67;99909.09;5073971;27;96737;-77
2021/01/30 08:45:01;;;;;;;;;;;;;;;6.29;53.28;99908.41;5069894;27;97781;-80
2021/01/30 08:47:27;;;;;;;;;;;;;;;6.56;51.90;99914.53;5062433;27;99293;-80
2021/01/30 08:50:02;;;;;;;;;;;;;;;6.75;51.22;99920.03;5059445;27;96712;-80
2021/01/30 08:52:40;;;;;;;;;;;;;;;6.93;50.85;99921.19;5057689;27;97179;-80
2021/01/30 08:55:32;;;;;;;;;;;;;;;6.66;51.78;99923.81;5054466;27;99398;-80
2021/01/30 08:57:58;;;;;;;;;;;;;;;6.97;51.31;99925.41;5008669;27;101398;-79
2021/01/30 09:00:47;;;;;;;;;;;;;;;7.41;50.01;99927.41;5055724;27;96731;-81
2021/01/30 09:03:33;;;;;;;;;;;;;;;7.39;50.10;99934.47;5055009;27;97270;-79
2021/01/30 09:05:58;;;;;;;;;;;;;;;7.07;50.75;99930.34;5055043;27;100718;-81
2021/01/30 09:09:00;;;;;;;;;;;;;;;7.47;49.55;99936.81;5054896;27;100700;-80
2021/01/30 09:11:37;;;;;;;;;;;;;;;7.46;50.18;99935.97;5054980;27;96758;-78
2021/01/30 09:14:18;;;;;;;;;;;;;;;7.24;50.40;99944.63;5055429;27;96902;-81
2021/01/30 09:16:46;;;;;;;;;;;;;;;7.18;50.82;99949.19;5040673;27;98339;-80
2021/01/30 09:19:17;;;;;;;;;;;;;;;6.57;52.65;99936.38;5060347;27;98850;-80
2021/01/30 09:21:52;;;;;;;;;;;;;;;6.60;51.80;99942.41;5056639;27;96736;-80
2021/01/30 09:24:39;;;;;;;;;;;;;;;6.87;51.20;99945.91;5054441;27;96688;-80
2021/01/30 09:27:10;;;;;;;;;;;;;;;6.61;51.61;99951.13;5054427;27;101322;-80
2021/01/30 09:29:37;;;;;;;;;;;;;;;6.94;51.17;99943.94;5054200;27;98187;-80
2021/01/30 09:32:04;;;;;;;;;;;;;;;6.71;51.54;99953.41;5055454;27;96733;-80
2021/01/30 09:34:32;;;;;;;;;;;;;;;6.92;50.92;99956.25;5056330;27;97222;-80
2021/01/30 09:36:58;;;;;;;;;;;;;;;7.09;51.49;99960.00;5065227;27;99837;-81
2021/01/30 09:39:26;;;;;;;;;;;;;;;7.39;50.58;99967.78;5067344;27;97078;-80
2021/01/30 09:42:05;;;;;;;;;;;;;;;7.13;50.96;99963.41;5055317;27;96738;-80
2021/01/30 09:44:31;;;;;;;;;;;;;;;7.12;50.75;99969.56;5054623;27;96681;-80
2021/01/30 09:47:19;;;;;;;;;;;;;;;7.19;50.60;99978.97;5052799;27;100165;-80
2021/01/30 09:49:47;;;;;;;;;;;;;;;6.75;51.16;99973.41;5053450;27;96754;-80
2021/01/30 09:52:14;;;;;;;;;;;;;;;7.15;51.11;99977.38;5054456;27;96722;-80
2021/01/30 09:54:40;;;;;;;;;;;;;;;7.11;50.63;99983.59;5054046;27;96893;-80
2021/01/30 09:57:08;;;;;;;;;;;;;;;6.94;50.80;99984.19;5053247;27;98397;-80
2021/01/30 09:59:35;;;;;;;;;;;;;;;7.15;50.67;99988.69;5053236;27;98976;-80
2021/01/30 10:02:12;;;;;;;;;;;;;;;7.44;50.36;99992.13;5054935;27;96769;-81
2021/01/30 10:04:38;;;;;;;;;;;;;;;7.58;49.77;99996.00;5056145;27;96715;-79
2021/01/30 10:07:08;;;;;;;;;;;;;;;7.64;49.55;99986.16;5053307;27;98812;-82
2021/01/30 10:09:38;;;;;;;;;;;;;;;7.69;48.96;99984.22;5054168;27;99573;-79
2021/01/30 10:12:04;;;;;;;;;;;;;;;7.86;49.03;99987.13;5053553;27;96819;-79
2021/01/30 10:14:35;;;;;;;;;;;;;;;8.20;47.73;99982.34;5054251;27;96697;-79
2021/01/30 10:17:02;;;;;;;;;;;;;;;8.31;46.93;99988.06;5053566;27;102462;-79
2021/01/30 10:19:30;;;;;;;;;;;;;;;6.96;50.76;99987.59;5053258;27;98969;-80
2021/01/30 10:21:56;;;;;;;;;;;;;;;7.39;50.78;99989.66;5048874;27;96772;-79
2021/01/30 10:24:24;;;;;;;;;;;;;;;7.49;50.47;99988.41;5033694;28;96821;-80
2021/01/30 10:26:52;;;;;;;;;;;;;;;7.83;49.55;99987.22;5033270;28;97941;-80
2021/01/30 10:29:19;;;;;;;;;;;;;;;7.97;48.99;99993.69;5034572;28;97712;-80
2021/01/30 10:31:47;;;;;;;;;;;;;;;6.56;52.19;99993.28;5034997;28;96897;-80
2021/01/30 10:34:17;;;;;;;;;;;;;;;7.56;49.38;99987.28;5034364;28;96845;-79
2021/01/30 10:36:47;;;;;;;;;;;;;;;7.67;49.89;99997.44;5033671;28;99207;-79
2021/01/30 10:39:13;;;;;;;;;;;;;;;7.38;49.75;100000.22;5038860;28;97806;-79
2021/01/30 10:41:40;;;;;;;;;;;;;;;7.32;50.88;99996.03;5050363;28;96724;-80
2021/01/30 10:44:06;;;;;;;;;;;;;;;7.20;51.11;99996.47;5050957;28;97218;-80
2021/01/30 10:46:37;;;;;;;;;;;;;;;7.39;50.11;100002.81;5039268;28;100881;-80
2021/01/30 10:49:06;;;;;;;;;;;;;;;7.89;49.14;99998.38;5038924;28;97850;-80
2021/01/30 10:51:34;;;;;;;;;;;;;;;8.25;47.88;99993.53;5046922;28;96760;-79
2021/01/30 10:54:22;;;;;;;;;;;;;;;8.37;47.79;100003.63;5054582;28;96696;-80
2021/01/30 10:57:03;;;;;;;;;;;;;;;8.29;48.08;99994.25;5052756;27;98206;-79
2021/01/30 10:59:29;;;;;;;;;;;;;;;8.34;47.20;99993.19;5046290;28;98056;-80
2021/01/30 11:01:55;;;;;;;;;;;;;;;8.11;48.28;100006.34;5053315;27;95915;-79
2021/01/30 11:04:26;;;;;;;;;;;;;;;7.16;51.15;100007.94;5052317;28;96870;-78
2021/01/30 11:06:57;;;;;;;;;;;;;;;6.67;51.76;100003.44;5053003;28;98160;-80
2021/01/30 11:09:25;;;;;;;;;;;;;;;6.78;51.99;99996.06;5054808;27;96893;-79
2021/01/30 11:11:53;;;;;;;;;;;;;;;7.22;50.63;100003.34;5051970;28;96637;-79
2021/01/30 11:14:25;;;;;;;;;;;;;;;7.26;50.37;100004.13;5041733;28;96837;-80
2021/01/30 11:16:51;;;;;;;;;;;;;;;6.67;52.86;100012.19;5044599;28;99011;-80
2021/01/30 11:19:21;;;;;;;;;;;;;;;7.51;49.64;100002.38;5046782;28;97805;-80
2021/01/30 11:21:48;;;;;;;;;;;;;;;6.97;49.52;100005.06;5056578;27;96637;-80
2021/01/30 11:24:30;;;;;;;;;;;;;;;5.78;52.42;100010.41;5063218;27;96901;-79
2021/01/30 11:26:56;;;;;;;;;;;;;;;5.60;52.96;100010.91;5067495;27;99275;-80
2021/01/30 11:29:30;;;;;;;;;;;;;;;6.59;51.18;100008.06;5075318;27;96866;-80
2021/01/30 11:31:56;;;;;;;;;;;;;;;6.96;48.96;100003.34;5068384;27;96830;-79
2021/01/30 11:34:23;;;;;;;;;;;;;;;6.19;51.02;100011.88;5058476;27;96830;-80
2021/01/30 11:37:09;;;;;;;;;;;;;;;6.63;49.95;100009.72;5065327;27;101452;-80
2021/01/30 11:39:44;;;;;;;;;;;;;;;5.71;52.02;100014.09;5063442;27;98064;-80
2021/01/30 11:42:11;;;;;;;;;;;;;;;5.70;51.69;100015.00;5046581;27;96913;-80
2021/01/30 11:44:49;;;;;;;;;;;;;;;6.52;50.69;100009.16;5063998;27;96810;-79
2021/01/30 11:47:15;;;;;;;;;;;;;;;6.96;49.52;100015.63;5061639;27;98477;-82
2021/01/30 11:49:41;;;;;;;;;;;;;;;5.84;50.55;100010.22;5063160;27;96998;-79
2021/01/30 11:52:15;;;;;;;;;;;;;;;6.22;49.87;100011.81;5062306;27;96781;-80
2021/01/30 11:55:02;;;;;;;;;;;;;;;5.90;49.76;100002.25;5060871;27;96799;-81
2021/01/30 11:57:28;;;;;;;;;;;;;;;5.45;51.98;100008.69;5058770;27;99248;-81
2021/01/30 11:59:54;;;;;;;;;;;;;;;6.11;50.83;100005.13;5059365;27;99494;-80
2021/01/30 12:02:23;;;;;;;;;;;;;;;6.09;49.89;100007.81;5056412;27;96845;-81
2021/01/30 12:04:49;;;;;;;;;;;;;;;6.05;49.97;100005.31;5055537;27;96878;-81
2021/01/30 12:07:15;;;;;;;;;;;;;;;6.91;47.60;100001.78;5054913;27;98572;-80
2021/01/30 12:09:42;;;;;;;;;;;;;;;7.00;48.03;100009.38;5055788;27;98874;-82
2021/01/30 12:12:07;;;;;;;;;;;;;;;7.03;48.26;100004.88;5057253;27;96771;-81
2021/01/30 12:14:33;;;;;;;;;;;;;;;7.34;47.30;100009.13;5068622;27;97024;-80
2021/01/30 12:16:59;;;;;;;;;;;;;;;7.50;46.96;100005.91;5065463;27;101509;-80
2021/01/30 12:19:25;;;;;;;;;;;;;;;6.80;48.25;100005.63;5060722;27;98510;-80
2021/01/30 12:21:51;;;;;;;;;;;;;;;6.77;49.06;100000.47;5057223;27;96723;-80
2021/01/30 12:24:17;;;;;;;;;;;;;;;6.61;49.48;100001.88;5059312;27;96881;-80
2021/01/30 12:26:44;;;;;;;;;;;;;;;6.63;49.68;100007.91;5057416;27;100133;-80
2021/01/30 12:29:09;;;;;;;;;;;;;;;7.69;47.15;99995.59;5057168;27;100820;-81
2021/01/30 12:31:35;;;;;;;;;;;;;;;7.78;46.01;99997.06;5057094;27;96727;-79
2021/01/30 12:34:01;;;;;;;;;;;;;;;6.76;48.45;100001.38;5055809;27;96870;-79
2021/01/30 12:36:27;;;;;;;;;;;;;;;7.56;47.54;100000.44;5056314;27;100763;-81
2021/01/30 12:38:53;;;;;;;;;;;;;;;7.82;44.73;100001.28;5054508;27;98818;-81
2021/01/30 12:41:19;;;;;;;;;;;;;;;7.41;45.97;100002.75;5054601;27;96728;-80
2021/01/30 12:43:46;;;;;;;;;;;;;;;7.47;45.52;99994.66;5055119;27;96945;-81
2021/01/30 12:46:12;;;;;;;;;;;;;;;7.24;47.13;99998.06;5055869;27;101522;-80
2021/01/30 12:48:42;;;;;;;;;;;;;;;7.55;45.87;100001.34;5058024;27;98945;-83
2021/01/30 12:51:08;;;;;;;;;;;;;;;6.28;46.44;100001.13;5057203;27;96849;-80
2021/01/30 12:53:34;;;;;;;;;;;;;;;6.28;47.31;100002.91;5058464;27;96826;-81
2021/01/30 12:56:00;;;;;;;;;;;;;;;6.17;47.05;99992.69;5054683;27;98087;-81
2021/01/30 12:58:27;;;;;;;;;;;;;;;5.85;48.33;100003.22;5053897;27;98056;-80
2021/01/30 13:00:55;;;;;;;;;;;;;;;5.99;48.10;99999.34;5055195;27;96694;-80
2021/01/30 13:03:23;;;;;;;;;;;;;;;6.01;49.19;100001.94;5054753;27;96838;-82
2021/01/30 13:05:49;;;;;;;;;;;;;;;6.65;46.75;99995.59;5054191;27;99626;-80